Página principal
METAR-TAF:

METAR-TAF

Aeroportos :

Irkutsk, Rússia

latitude: 52-16N, longitude: 104-19E, altura: 513 m

Observação actual do tempo

O boletim foi feito há 20 minutos, às 12:30 UTC
Vento 12 kt de oes-noroeste
Temperatura 17°C
Humidade 88%
Pressão 1000 hPa
Visibilidade 10 km ou mais
Encobertoa uma altura de 1200 ft, Cumulonimbus.

METAR: UIII 201230Z 29006MPS 9999 OVC012CB 17/15 Q1000 R30/60D NOSIG RMK QFE706/0941

Hora: 20:50 (12:50 UTC)

Previsão

O boletim foi feito há 1 hora e 50 minutos, às 11:00 UTC
Previsão válida de 20 às 12 UTC a 21 às 12 UTC
Vento 16 kt de oes-noroeste
Visibilidade 10 km ou mais
Nuvens fragmentadasa uma altura de 700 ft, Cumulonimbus.
aguaceiros fracos de chuva
Temporariamente
de 20 às 12 UTC a 21 às 06 UTC
Vento 19 kt de noroeste com rajadas de 29 kt
Visibilidade: 2000 m
Nuvens fragmentadasa uma altura de 400 ft, Cumulonimbus.
aguaceiros de chuva

TAF: UIII 201100Z 2012/2112 30008MPS 9999 -SHRA BKN007CB TEMPO 2012/2106 32010G15MPS 2000 SHRA BKN004CB

Observações e previsões do tempo de mais de 4000 aeroportos (mensagens METAR e TAF).

As estações disponíveis são os pontos amarelos e vermelhos sobre o mapa.

Mova o rato sobre o mapa para ver o nome da estação.

Depois clique no ponto para visualizar as observações e previsões meteorológicas.

Para alterar o mapa : clique nos botões verdes com uma cruz preta para aumentar o zoom; no botão verde com uma pitada de zoom; ou nas setas verdes para mapas adjacentes.


METAR-TAF: